sensor_id;sensor_type;location;lat;lon;timestamp;P1;durP1;ratioP1;P2;durP2;ratioP2
56201;SDS011;42117;50.360;3.508;2023-07-31T00:00:49;3.92;;;2.63;;
56201;SDS011;42117;50.360;3.508;2023-07-31T00:03:15;4.60;;;3.35;;
56201;SDS011;42117;50.360;3.508;2023-07-31T00:05:41;5.32;;;3.15;;
56201;SDS011;42117;50.360;3.508;2023-07-31T00:08:07;4.20;;;2.88;;
56201;SDS011;42117;50.360;3.508;2023-07-31T00:10:33;4.15;;;2.97;;
56201;SDS011;42117;50.360;3.508;2023-07-31T00:12:59;3.80;;;2.75;;
56201;SDS011;42117;50.360;3.508;2023-07-31T00:15:25;4.63;;;2.93;;
56201;SDS011;42117;50.360;3.508;2023-07-31T00:17:51;4.97;;;2.73;;
56201;SDS011;42117;50.360;3.508;2023-07-31T00:20:17;4.47;;;3.17;;
56201;SDS011;42117;50.360;3.508;2023-07-31T00:22:43;5.40;;;3.17;;
56201;SDS011;42117;50.360;3.508;2023-07-31T00:25:09;6.05;;;3.33;;
56201;SDS011;42117;50.360;3.508;2023-07-31T00:27:35;7.03;;;2.75;;
56201;SDS011;42117;50.360;3.508;2023-07-31T00:30:01;6.50;;;3.20;;
56201;SDS011;42117;50.360;3.508;2023-07-31T00:32:27;3.67;;;3.28;;
56201;SDS011;42117;50.360;3.508;2023-07-31T00:34:53;4.20;;;3.05;;
56201;SDS011;42117;50.360;3.508;2023-07-31T00:37:19;6.83;;;3.13;;
56201;SDS011;42117;50.360;3.508;2023-07-31T00:39:45;8.13;;;3.13;;
56201;SDS011;42117;50.360;3.508;2023-07-31T00:42:11;2.92;;;2.72;;
56201;SDS011;42117;50.360;3.508;2023-07-31T00:44:37;3.22;;;2.53;;
56201;SDS011;42117;50.360;3.508;2023-07-31T00:47:03;3.83;;;2.92;;
56201;SDS011;42117;50.360;3.508;2023-07-31T00:49:29;2.50;;;2.40;;
56201;SDS011;42117;50.360;3.508;2023-07-31T00:51:55;2.40;;;2.28;;
56201;SDS011;42117;50.360;3.508;2023-07-31T00:54:22;7.40;;;3.00;;
56201;SDS011;42117;50.360;3.508;2023-07-31T00:56:49;2.90;;;2.30;;
56201;SDS011;42117;50.360;3.508;2023-07-31T00:59:16;4.75;;;3.20;;
56201;SDS011;42117;50.360;3.508;2023-07-31T01:01:43;3.30;;;2.83;;
56201;SDS011;42117;50.360;3.508;2023-07-31T01:04:09;3.78;;;2.90;;
56201;SDS011;42117;50.360;3.508;2023-07-31T01:06:39;4.03;;;2.92;;
56201;SDS011;42117;50.360;3.508;2023-07-31T01:11:37;3.37;;;3.07;;
56201;SDS011;42117;50.360;3.508;2023-07-31T01:14:04;3.17;;;2.97;;
56201;SDS011;42117;50.360;3.508;2023-07-31T01:16:30;2.00;;;2.00;;
56201;SDS011;42117;50.360;3.508;2023-07-31T01:18:56;4.40;;;3.00;;
56201;SDS011;42117;50.360;3.508;2023-07-31T01:21:29;5.55;;;3.08;;
56201;SDS011;42117;50.360;3.508;2023-07-31T01:24:01;2.78;;;2.47;;
56201;SDS011;42117;50.360;3.508;2023-07-31T01:26:34;3.50;;;3.17;;
56201;SDS011;42117;50.360;3.508;2023-07-31T01:29:07;5.95;;;2.97;;
56201;SDS011;42117;50.360;3.508;2023-07-31T01:31:36;2.30;;;2.17;;
56201;SDS011;42117;50.360;3.508;2023-07-31T01:34:02;3.53;;;2.70;;
56201;SDS011;42117;50.360;3.508;2023-07-31T01:36:29;2.90;;;2.70;;
56201;SDS011;42117;50.360;3.508;2023-07-31T01:38:59;4.68;;;3.35;;
56201;SDS011;42117;50.360;3.508;2023-07-31T01:41:26;3.72;;;3.00;;
56201;SDS011;42117;50.360;3.508;2023-07-31T01:43:52;3.03;;;2.83;;
56201;SDS011;42117;50.360;3.508;2023-07-31T01:46:18;4.50;;;3.38;;
56201;SDS011;42117;50.360;3.508;2023-07-31T01:48:44;3.80;;;3.50;;
56201;SDS011;42117;50.360;3.508;2023-07-31T01:51:10;3.93;;;3.30;;
56201;SDS011;42117;50.360;3.508;2023-07-31T01:53:36;3.00;;;2.80;;
56201;SDS011;42117;50.360;3.508;2023-07-31T01:56:02;3.28;;;2.70;;
56201;SDS011;42117;50.360;3.508;2023-07-31T01:58:28;4.55;;;3.20;;
56201;SDS011;42117;50.360;3.508;2023-07-31T02:00:54;2.63;;;2.50;;
56201;SDS011;42117;50.360;3.508;2023-07-31T02:03:20;3.03;;;2.72;;
56201;SDS011;42117;50.360;3.508;2023-07-31T02:05:46;3.60;;;3.30;;
56201;SDS011;42117;50.360;3.508;2023-07-31T02:08:13;3.72;;;3.53;;
56201;SDS011;42117;50.360;3.508;2023-07-31T02:10:39;3.78;;;3.35;;
56201;SDS011;42117;50.360;3.508;2023-07-31T02:13:05;4.38;;;3.50;;
56201;SDS011;42117;50.360;3.508;2023-07-31T02:15:31;4.10;;;3.30;;
56201;SDS011;42117;50.360;3.508;2023-07-31T02:17:57;4.18;;;3.78;;
56201;SDS011;42117;50.360;3.508;2023-07-31T02:20:23;4.10;;;3.70;;
56201;SDS011;42117;50.360;3.508;2023-07-31T02:22:49;3.45;;;3.15;;
56201;SDS011;42117;50.360;3.508;2023-07-31T02:25:15;3.88;;;3.50;;
56201;SDS011;42117;50.360;3.508;2023-07-31T02:27:42;3.20;;;3.00;;
56201;SDS011;42117;50.360;3.508;2023-07-31T02:30:08;4.43;;;4.03;;
56201;SDS011;42117;50.360;3.508;2023-07-31T02:32:34;3.28;;;3.08;;
56201;SDS011;42117;50.360;3.508;2023-07-31T02:35:00;7.45;;;3.75;;
56201;SDS011;42117;50.360;3.508;2023-07-31T02:37:26;5.57;;;2.90;;
56201;SDS011;42117;50.360;3.508;2023-07-31T02:39:53;5.78;;;3.15;;
56201;SDS011;42117;50.360;3.508;2023-07-31T02:42:20;4.70;;;3.72;;
56201;SDS011;42117;50.360;3.508;2023-07-31T02:44:46;3.83;;;3.53;;
56201;SDS011;42117;50.360;3.508;2023-07-31T02:47:12;6.40;;;3.65;;
56201;SDS011;42117;50.360;3.508;2023-07-31T02:49:38;4.43;;;3.30;;
56201;SDS011;42117;50.360;3.508;2023-07-31T02:52:04;5.93;;;3.88;;
56201;SDS011;42117;50.360;3.508;2023-07-31T02:54:30;4.90;;;3.60;;
56201;SDS011;42117;50.360;3.508;2023-07-31T02:56:56;4.60;;;3.35;;
56201;SDS011;42117;50.360;3.508;2023-07-31T02:59:22;2.78;;;2.58;;
56201;SDS011;42117;50.360;3.508;2023-07-31T03:01:48;3.25;;;2.95;;
56201;SDS011;42117;50.360;3.508;2023-07-31T03:04:14;8.90;;;3.40;;
56201;SDS011;42117;50.360;3.508;2023-07-31T03:06:40;3.07;;;2.87;;
56201;SDS011;42117;50.360;3.508;2023-07-31T03:09:06;3.10;;;2.80;;
56201;SDS011;42117;50.360;3.508;2023-07-31T03:11:32;3.38;;;3.08;;
56201;SDS011;42117;50.360;3.508;2023-07-31T03:13:58;5.20;;;3.60;;
56201;SDS011;42117;50.360;3.508;2023-07-31T03:16:24;3.08;;;2.88;;
56201;SDS011;42117;50.360;3.508;2023-07-31T03:18:50;2.78;;;2.63;;
56201;SDS011;42117;50.360;3.508;2023-07-31T03:21:16;3.20;;;2.95;;
56201;SDS011;42117;50.360;3.508;2023-07-31T03:23:42;3.65;;;3.28;;
56201;SDS011;42117;50.360;3.508;2023-07-31T03:26:08;5.25;;;3.33;;
56201;SDS011;42117;50.360;3.508;2023-07-31T03:28:34;3.20;;;2.90;;
56201;SDS011;42117;50.360;3.508;2023-07-31T03:31:00;6.03;;;3.67;;
56201;SDS011;42117;50.360;3.508;2023-07-31T03:33:27;9.65;;;3.90;;
56201;SDS011;42117;50.360;3.508;2023-07-31T03:35:53;3.42;;;3.22;;
56201;SDS011;42117;50.360;3.508;2023-07-31T03:38:19;7.85;;;4.07;;
56201;SDS011;42117;50.360;3.508;2023-07-31T03:40:45;3.40;;;2.70;;
56201;SDS011;42117;50.360;3.508;2023-07-31T03:43:12;4.43;;;3.47;;
56201;SDS011;42117;50.360;3.508;2023-07-31T03:45:38;3.03;;;2.92;;
56201;SDS011;42117;50.360;3.508;2023-07-31T03:48:04;3.47;;;3.22;;
56201;SDS011;42117;50.360;3.508;2023-07-31T03:50:30;10.80;;;3.60;;
56201;SDS011;42117;50.360;3.508;2023-07-31T03:52:56;5.28;;;3.75;;
56201;SDS011;42117;50.360;3.508;2023-07-31T03:55:22;4.38;;;3.33;;
56201;SDS011;42117;50.360;3.508;2023-07-31T03:57:48;6.20;;;3.92;;
56201;SDS011;42117;50.360;3.508;2023-07-31T04:00:14;4.78;;;2.80;;
56201;SDS011;42117;50.360;3.508;2023-07-31T04:02:40;7.13;;;4.15;;
56201;SDS011;42117;50.360;3.508;2023-07-31T04:05:06;3.75;;;3.40;;
56201;SDS011;42117;50.360;3.508;2023-07-31T04:07:33;3.60;;;3.30;;
56201;SDS011;42117;50.360;3.508;2023-07-31T04:09:59;4.38;;;3.90;;
56201;SDS011;42117;50.360;3.508;2023-07-31T04:12:25;5.73;;;4.23;;
56201;SDS011;42117;50.360;3.508;2023-07-31T04:14:51;5.70;;;3.90;;
56201;SDS011;42117;50.360;3.508;2023-07-31T04:17:17;4.60;;;4.18;;
56201;SDS011;42117;50.360;3.508;2023-07-31T04:19:43;4.83;;;4.23;;
56201;SDS011;42117;50.360;3.508;2023-07-31T04:22:09;3.75;;;3.17;;
56201;SDS011;42117;50.360;3.508;2023-07-31T04:24:35;4.43;;;3.67;;
56201;SDS011;42117;50.360;3.508;2023-07-31T04:27:01;6.47;;;3.63;;
56201;SDS011;42117;50.360;3.508;2023-07-31T04:29:27;4.38;;;3.70;;
56201;SDS011;42117;50.360;3.508;2023-07-31T04:31:53;5.50;;;3.92;;
56201;SDS011;42117;50.360;3.508;2023-07-31T04:34:19;5.63;;;3.85;;
56201;SDS011;42117;50.360;3.508;2023-07-31T04:36:45;4.60;;;3.65;;
56201;SDS011;42117;50.360;3.508;2023-07-31T04:39:11;4.82;;;3.95;;
56201;SDS011;42117;50.360;3.508;2023-07-31T04:41:37;3.78;;;3.53;;
56201;SDS011;42117;50.360;3.508;2023-07-31T04:44:03;3.23;;;3.03;;
56201;SDS011;42117;50.360;3.508;2023-07-31T04:46:29;3.10;;;2.90;;
56201;SDS011;42117;50.360;3.508;2023-07-31T04:48:56;7.43;;;4.30;;
56201;SDS011;42117;50.360;3.508;2023-07-31T04:51:22;4.30;;;3.90;;
56201;SDS011;42117;50.360;3.508;2023-07-31T04:53:48;4.13;;;3.42;;
56201;SDS011;42117;50.360;3.508;2023-07-31T04:56:15;4.10;;;3.55;;
56201;SDS011;42117;50.360;3.508;2023-07-31T04:58:41;3.30;;;3.10;;
56201;SDS011;42117;50.360;3.508;2023-07-31T05:01:07;4.60;;;3.50;;
56201;SDS011;42117;50.360;3.508;2023-07-31T05:03:33;8.65;;;3.80;;
56201;SDS011;42117;50.360;3.508;2023-07-31T05:05:59;5.25;;;2.90;;
56201;SDS011;42117;50.360;3.508;2023-07-31T05:08:25;3.60;;;3.08;;
56201;SDS011;42117;50.360;3.508;2023-07-31T05:10:51;3.17;;;2.97;;
56201;SDS011;42117;50.360;3.508;2023-07-31T05:13:17;3.78;;;3.47;;
56201;SDS011;42117;50.360;3.508;2023-07-31T05:15:43;7.43;;;3.72;;
56201;SDS011;42117;50.360;3.508;2023-07-31T05:18:09;8.20;;;3.70;;
56201;SDS011;42117;50.360;3.508;2023-07-31T05:20:35;3.10;;;2.90;;
56201;SDS011;42117;50.360;3.508;2023-07-31T05:23:01;4.80;;;4.40;;
56201;SDS011;42117;50.360;3.508;2023-07-31T05:25:27;6.72;;;5.03;;
56201;SDS011;42117;50.360;3.508;2023-07-31T05:27:53;5.15;;;4.30;;
56201;SDS011;42117;50.360;3.508;2023-07-31T05:30:19;11.30;;;4.55;;
56201;SDS011;42117;50.360;3.508;2023-07-31T05:32:46;6.03;;;3.40;;
56201;SDS011;42117;50.360;3.508;2023-07-31T05:35:12;7.45;;;4.25;;
56201;SDS011;42117;50.360;3.508;2023-07-31T05:37:38;4.00;;;3.58;;
56201;SDS011;42117;50.360;3.508;2023-07-31T05:40:04;4.38;;;3.65;;
56201;SDS011;42117;50.360;3.508;2023-07-31T05:42:30;4.18;;;3.53;;
56201;SDS011;42117;50.360;3.508;2023-07-31T05:44:56;5.30;;;3.60;;
56201;SDS011;42117;50.360;3.508;2023-07-31T05:47:22;3.15;;;2.95;;
56201;SDS011;42117;50.360;3.508;2023-07-31T05:49:48;3.90;;;3.10;;
56201;SDS011;42117;50.360;3.508;2023-07-31T05:52:17;2.90;;;2.80;;
56201;SDS011;42117;50.360;3.508;2023-07-31T05:54:43;3.53;;;3.23;;
56201;SDS011;42117;50.360;3.508;2023-07-31T05:57:11;3.08;;;2.78;;
56201;SDS011;42117;50.360;3.508;2023-07-31T05:59:37;6.28;;;3.55;;
56201;SDS011;42117;50.360;3.508;2023-07-31T06:02:03;6.05;;;3.85;;
56201;SDS011;42117;50.360;3.508;2023-07-31T06:04:29;4.13;;;3.20;;
56201;SDS011;42117;50.360;3.508;2023-07-31T06:06:55;5.97;;;3.60;;
56201;SDS011;42117;50.360;3.508;2023-07-31T06:09:22;4.32;;;4.03;;
56201;SDS011;42117;50.360;3.508;2023-07-31T06:11:48;12.85;;;7.57;;
56201;SDS011;42117;50.360;3.508;2023-07-31T06:14:14;4.82;;;3.67;;
56201;SDS011;42117;50.360;3.508;2023-07-31T06:16:40;3.38;;;3.17;;
56201;SDS011;42117;50.360;3.508;2023-07-31T06:19:06;5.70;;;3.47;;
56201;SDS011;42117;50.360;3.508;2023-07-31T06:21:32;8.68;;;3.80;;
56201;SDS011;42117;50.360;3.508;2023-07-31T06:23:58;4.10;;;3.08;;
56201;SDS011;42117;50.360;3.508;2023-07-31T06:26:24;3.85;;;2.83;;
56201;SDS011;42117;50.360;3.508;2023-07-31T06:28:50;4.10;;;3.08;;
56201;SDS011;42117;50.360;3.508;2023-07-31T06:31:16;5.22;;;4.18;;
56201;SDS011;42117;50.360;3.508;2023-07-31T06:33:45;3.30;;;2.92;;
56201;SDS011;42117;50.360;3.508;2023-07-31T06:36:11;3.30;;;3.00;;
56201;SDS011;42117;50.360;3.508;2023-07-31T06:38:37;3.97;;;3.58;;
56201;SDS011;42117;50.360;3.508;2023-07-31T06:41:03;3.67;;;3.13;;
56201;SDS011;42117;50.360;3.508;2023-07-31T06:43:29;4.20;;;2.80;;
56201;SDS011;42117;50.360;3.508;2023-07-31T06:45:55;9.65;;;3.22;;
56201;SDS011;42117;50.360;3.508;2023-07-31T06:48:21;5.47;;;4.18;;
56201;SDS011;42117;50.360;3.508;2023-07-31T06:50:47;3.53;;;3.33;;
56201;SDS011;42117;50.360;3.508;2023-07-31T06:53:13;7.83;;;3.80;;
56201;SDS011;42117;50.360;3.508;2023-07-31T06:55:39;3.70;;;3.28;;
56201;SDS011;42117;50.360;3.508;2023-07-31T06:58:05;3.10;;;2.90;;
56201;SDS011;42117;50.360;3.508;2023-07-31T07:00:31;4.13;;;3.63;;
56201;SDS011;42117;50.360;3.508;2023-07-31T07:02:57;3.72;;;3.50;;
56201;SDS011;42117;50.360;3.508;2023-07-31T07:05:23;4.00;;;3.38;;
56201;SDS011;42117;50.360;3.508;2023-07-31T07:07:49;4.43;;;4.13;;
56201;SDS011;42117;50.360;3.508;2023-07-31T07:10:19;4.40;;;4.10;;
56201;SDS011;42117;50.360;3.508;2023-07-31T07:12:45;5.10;;;3.42;;
56201;SDS011;42117;50.360;3.508;2023-07-31T07:15:11;3.90;;;3.70;;
56201;SDS011;42117;50.360;3.508;2023-07-31T07:17:37;5.23;;;3.97;;
56201;SDS011;42117;50.360;3.508;2023-07-31T07:20:03;4.90;;;3.47;;
56201;SDS011;42117;50.360;3.508;2023-07-31T07:22:29;4.57;;;4.13;;
56201;SDS011;42117;50.360;3.508;2023-07-31T07:24:55;4.95;;;4.55;;
56201;SDS011;42117;50.360;3.508;2023-07-31T07:27:21;5.03;;;4.55;;
56201;SDS011;42117;50.360;3.508;2023-07-31T07:29:50;8.38;;;5.35;;
56201;SDS011;42117;50.360;3.508;2023-07-31T07:32:17;4.67;;;4.47;;
56201;SDS011;42117;50.360;3.508;2023-07-31T07:34:43;5.80;;;4.80;;
56201;SDS011;42117;50.360;3.508;2023-07-31T07:37:09;5.15;;;4.85;;
56201;SDS011;42117;50.360;3.508;2023-07-31T07:39:35;6.57;;;6.13;;
56201;SDS011;42117;50.360;3.508;2023-07-31T07:42:01;9.97;;;7.20;;
56201;SDS011;42117;50.360;3.508;2023-07-31T07:44:28;8.52;;;7.45;;
56201;SDS011;42117;50.360;3.508;2023-07-31T07:46:54;9.57;;;7.90;;
56201;SDS011;42117;50.360;3.508;2023-07-31T07:49:20;6.78;;;6.38;;
56201;SDS011;42117;50.360;3.508;2023-07-31T07:51:47;7.75;;;6.93;;
56201;SDS011;42117;50.360;3.508;2023-07-31T07:54:13;6.20;;;5.75;;
56201;SDS011;42117;50.360;3.508;2023-07-31T07:56:39;6.15;;;5.82;;
56201;SDS011;42117;50.360;3.508;2023-07-31T07:59:06;5.70;;;5.32;;
56201;SDS011;42117;50.360;3.508;2023-07-31T08:01:32;8.13;;;5.85;;
56201;SDS011;42117;50.360;3.508;2023-07-31T08:03:58;5.23;;;4.83;;
56201;SDS011;42117;50.360;3.508;2023-07-31T08:06:24;3.92;;;3.55;;
56201;SDS011;42117;50.360;3.508;2023-07-31T08:08:50;7.30;;;4.07;;
56201;SDS011;42117;50.360;3.508;2023-07-31T08:11:16;3.13;;;3.03;;
56201;SDS011;42117;50.360;3.508;2023-07-31T08:13:42;3.38;;;3.17;;
56201;SDS011;42117;50.360;3.508;2023-07-31T08:16:08;5.38;;;4.10;;
56201;SDS011;42117;50.360;3.508;2023-07-31T08:18:34;4.00;;;3.80;;
56201;SDS011;42117;50.360;3.508;2023-07-31T08:21:01;4.50;;;4.20;;
56201;SDS011;42117;50.360;3.508;2023-07-31T08:23:27;3.33;;;3.13;;
56201;SDS011;42117;50.360;3.508;2023-07-31T08:25:54;4.55;;;3.38;;
56201;SDS011;42117;50.360;3.508;2023-07-31T08:28:20;3.60;;;3.30;;
56201;SDS011;42117;50.360;3.508;2023-07-31T08:30:46;4.75;;;3.60;;
56201;SDS011;42117;50.360;3.508;2023-07-31T08:33:12;3.78;;;3.42;;
56201;SDS011;42117;50.360;3.508;2023-07-31T08:35:38;5.05;;;3.75;;
56201;SDS011;42117;50.360;3.508;2023-07-31T08:38:04;6.50;;;3.90;;
56201;SDS011;42117;50.360;3.508;2023-07-31T08:40:30;5.22;;;2.70;;
56201;SDS011;42117;50.360;3.508;2023-07-31T08:42:56;5.80;;;3.27;;
56201;SDS011;42117;50.360;3.508;2023-07-31T08:45:26;3.30;;;2.80;;
56201;SDS011;42117;50.360;3.508;2023-07-31T08:47:53;8.30;;;4.55;;
56201;SDS011;42117;50.360;3.508;2023-07-31T08:50:19;3.72;;;3.33;;
56201;SDS011;42117;50.360;3.508;2023-07-31T08:52:46;2.90;;;2.80;;
56201;SDS011;42117;50.360;3.508;2023-07-31T08:55:13;6.25;;;4.18;;
56201;SDS011;42117;50.360;3.508;2023-07-31T08:57:39;3.90;;;3.70;;
56201;SDS011;42117;50.360;3.508;2023-07-31T09:00:05;6.20;;;4.43;;
56201;SDS011;42117;50.360;3.508;2023-07-31T09:05:17;5.63;;;3.97;;
56201;SDS011;42117;50.360;3.508;2023-07-31T09:07:43;6.77;;;3.93;;
56201;SDS011;42117;50.360;3.508;2023-07-31T09:10:12;7.25;;;5.00;;
56201;SDS011;42117;50.360;3.508;2023-07-31T09:12:38;8.60;;;4.20;;
56201;SDS011;42117;50.360;3.508;2023-07-31T09:15:04;8.65;;;4.82;;
56201;SDS011;42117;50.360;3.508;2023-07-31T09:17:31;5.53;;;5.03;;
56201;SDS011;42117;50.360;3.508;2023-07-31T09:19:57;5.32;;;4.82;;
56201;SDS011;42117;50.360;3.508;2023-07-31T09:22:33;5.95;;;5.10;;
56201;SDS011;42117;50.360;3.508;2023-07-31T09:25:19;7.93;;;5.80;;
56201;SDS011;42117;50.360;3.508;2023-07-31T09:27:49;5.55;;;5.22;;
56201;SDS011;42117;50.360;3.508;2023-07-31T09:30:16;5.18;;;4.68;;
56201;SDS011;42117;50.360;3.508;2023-07-31T09:32:42;5.25;;;4.82;;
56201;SDS011;42117;50.360;3.508;2023-07-31T09:37:41;5.07;;;4.57;;
56201;SDS011;42117;50.360;3.508;2023-07-31T09:40:07;5.30;;;4.60;;
56201;SDS011;42117;50.360;3.508;2023-07-31T09:42:34;4.80;;;4.35;;
56201;SDS011;42117;50.360;3.508;2023-07-31T09:45:09;5.32;;;4.85;;
56201;SDS011;42117;50.360;3.508;2023-07-31T09:47:35;4.50;;;4.10;;
56201;SDS011;42117;50.360;3.508;2023-07-31T09:50:01;9.10;;;3.87;;
56201;SDS011;42117;50.360;3.508;2023-07-31T09:52:33;6.32;;;3.55;;
56201;SDS011;42117;50.360;3.508;2023-07-31T09:54:59;6.13;;;3.67;;
56201;SDS011;42117;50.360;3.508;2023-07-31T09:57:25;3.00;;;2.70;;
56201;SDS011;42117;50.360;3.508;2023-07-31T09:59:52;5.20;;;3.35;;
56201;SDS011;42117;50.360;3.508;2023-07-31T10:02:20;5.20;;;3.53;;
56201;SDS011;42117;50.360;3.508;2023-07-31T10:04:47;6.60;;;3.05;;
56201;SDS011;42117;50.360;3.508;2023-07-31T10:07:16;3.05;;;2.85;;
56201;SDS011;42117;50.360;3.508;2023-07-31T10:09:43;2.75;;;2.58;;
56201;SDS011;42117;50.360;3.508;2023-07-31T10:12:10;8.32;;;3.17;;
56201;SDS011;42117;50.360;3.508;2023-07-31T10:14:38;3.97;;;3.30;;
56201;SDS011;42117;50.360;3.508;2023-07-31T10:17:04;4.32;;;3.15;;
56201;SDS011;42117;50.360;3.508;2023-07-31T10:19:31;3.08;;;2.88;;
56201;SDS011;42117;50.360;3.508;2023-07-31T10:21:57;7.10;;;4.00;;
56201;SDS011;42117;50.360;3.508;2023-07-31T10:24:23;8.13;;;3.47;;
56201;SDS011;42117;50.360;3.508;2023-07-31T10:26:50;2.50;;;2.40;;
56201;SDS011;42117;50.360;3.508;2023-07-31T10:29:17;5.40;;;2.50;;
56201;SDS011;42117;50.360;3.508;2023-07-31T10:31:45;3.55;;;3.00;;
56201;SDS011;42117;50.360;3.508;2023-07-31T10:34:14;3.13;;;2.78;;
56201;SDS011;42117;50.360;3.508;2023-07-31T10:36:40;3.63;;;3.00;;
56201;SDS011;42117;50.360;3.508;2023-07-31T10:39:06;7.15;;;4.25;;
56201;SDS011;42117;50.360;3.508;2023-07-31T10:41:52;13.05;;;3.83;;
56201;SDS011;42117;50.360;3.508;2023-07-31T10:44:18;6.95;;;3.65;;
56201;SDS011;42117;50.360;3.508;2023-07-31T10:46:45;3.37;;;3.17;;
56201;SDS011;42117;50.360;3.508;2023-07-31T10:49:12;6.07;;;3.28;;
56201;SDS011;42117;50.360;3.508;2023-07-31T10:51:46;4.93;;;3.08;;
56201;SDS011;42117;50.360;3.508;2023-07-31T10:54:13;4.63;;;3.10;;
56201;SDS011;42117;50.360;3.508;2023-07-31T10:56:40;4.13;;;2.72;;
56201;SDS011;42117;50.360;3.508;2023-07-31T10:59:06;4.07;;;2.80;;
56201;SDS011;42117;50.360;3.508;2023-07-31T11:01:54;2.80;;;2.58;;
56201;SDS011;42117;50.360;3.508;2023-07-31T11:04:22;3.60;;;3.10;;
56201;SDS011;42117;50.360;3.508;2023-07-31T11:06:55;4.70;;;2.78;;
56201;SDS011;42117;50.360;3.508;2023-07-31T11:09:21;3.92;;;2.67;;
56201;SDS011;42117;50.360;3.508;2023-07-31T11:11:47;3.70;;;2.85;;
56201;SDS011;42117;50.360;3.508;2023-07-31T11:14:16;6.90;;;3.17;;
56201;SDS011;42117;50.360;3.508;2023-07-31T11:16:42;4.43;;;2.90;;
56201;SDS011;42117;50.360;3.508;2023-07-31T11:19:08;3.40;;;3.15;;
56201;SDS011;42117;50.360;3.508;2023-07-31T11:21:34;6.65;;;3.10;;
56201;SDS011;42117;50.360;3.508;2023-07-31T11:24:00;2.63;;;2.45;;
56201;SDS011;42117;50.360;3.508;2023-07-31T11:26:26;3.20;;;2.97;;
56201;SDS011;42117;50.360;3.508;2023-07-31T11:28:52;3.67;;;3.38;;
56201;SDS011;42117;50.360;3.508;2023-07-31T11:31:19;4.60;;;3.53;;
56201;SDS011;42117;50.360;3.508;2023-07-31T11:33:45;8.23;;;2.90;;
56201;SDS011;42117;50.360;3.508;2023-07-31T11:36:15;4.53;;;3.03;;
56201;SDS011;42117;50.360;3.508;2023-07-31T11:38:41;7.32;;;3.95;;
56201;SDS011;42117;50.360;3.508;2023-07-31T11:41:07;8.47;;;3.43;;
56201;SDS011;42117;50.360;3.508;2023-07-31T11:43:34;3.55;;;3.00;;
56201;SDS011;42117;50.360;3.508;2023-07-31T11:46:01;3.38;;;3.10;;
56201;SDS011;42117;50.360;3.508;2023-07-31T11:48:29;7.18;;;3.72;;
56201;SDS011;42117;50.360;3.508;2023-07-31T11:50:59;3.83;;;3.53;;
56201;SDS011;42117;50.360;3.508;2023-07-31T11:55:58;4.70;;;4.30;;
56201;SDS011;42117;50.360;3.508;2023-07-31T11:58:24;5.95;;;4.90;;
56201;SDS011;42117;50.360;3.508;2023-07-31T12:00:51;4.03;;;3.67;;
56201;SDS011;42117;50.360;3.508;2023-07-31T12:03:17;5.40;;;4.13;;
56201;SDS011;42117;50.360;3.508;2023-07-31T12:05:44;5.50;;;3.72;;
56201;SDS011;42117;50.360;3.508;2023-07-31T12:08:10;6.32;;;4.22;;
56201;SDS011;42117;50.360;3.508;2023-07-31T12:10:37;6.20;;;4.20;;
56201;SDS011;42117;50.360;3.508;2023-07-31T12:17:57;3.10;;;3.00;;
56201;SDS011;42117;50.360;3.508;2023-07-31T12:20:23;3.95;;;3.75;;
56201;SDS011;42117;50.360;3.508;2023-07-31T12:22:49;3.13;;;3.10;;
56201;SDS011;42117;50.360;3.508;2023-07-31T12:25:15;3.75;;;3.65;;
56201;SDS011;42117;50.360;3.508;2023-07-31T12:27:44;4.47;;;4.28;;
56201;SDS011;42117;50.360;3.508;2023-07-31T12:30:28;4.88;;;4.68;;
56201;SDS011;42117;50.360;3.508;2023-07-31T12:32:54;22.52;;;21.50;;
56201;SDS011;42117;50.360;3.508;2023-07-31T12:35:21;45.42;;;43.13;;
56201;SDS011;42117;50.360;3.508;2023-07-31T12:37:47;54.15;;;51.45;;
56201;SDS011;42117;50.360;3.508;2023-07-31T12:40:13;54.60;;;51.85;;
56201;SDS011;42117;50.360;3.508;2023-07-31T12:42:40;63.72;;;60.42;;
56201;SDS011;42117;50.360;3.508;2023-07-31T12:45:06;65.70;;;62.15;;
56201;SDS011;42117;50.360;3.508;2023-07-31T12:47:32;77.55;;;73.35;;
56201;SDS011;42117;50.360;3.508;2023-07-31T12:49:58;77.53;;;73.32;;
56201;SDS011;42117;50.360;3.508;2023-07-31T12:52:24;128.88;;;120.38;;
56201;SDS011;42117;50.360;3.508;2023-07-31T12:54:50;137.07;;;127.95;;
56201;SDS011;42117;50.360;3.508;2023-07-31T12:57:16;133.80;;;124.80;;
56201;SDS011;42117;50.360;3.508;2023-07-31T12:59:42;132.88;;;123.80;;
56201;SDS011;42117;50.360;3.508;2023-07-31T13:02:08;132.73;;;123.55;;
56201;SDS011;42117;50.360;3.508;2023-07-31T13:04:35;137.55;;;128.18;;
56201;SDS011;42117;50.360;3.508;2023-07-31T13:07:00;136.98;;;128.07;;
56201;SDS011;42117;50.360;3.508;2023-07-31T13:09:27;140.25;;;131.25;;
56201;SDS011;42117;50.360;3.508;2023-07-31T13:11:52;140.75;;;131.25;;
56201;SDS011;42117;50.360;3.508;2023-07-31T13:14:18;141.90;;;132.20;;
56201;SDS011;42117;50.360;3.508;2023-07-31T13:16:45;134.93;;;125.97;;
56201;SDS011;42117;50.360;3.508;2023-07-31T13:19:11;135.03;;;126.33;;
56201;SDS011;42117;50.360;3.508;2023-07-31T13:21:37;129.83;;;121.30;;
56201;SDS011;42117;50.360;3.508;2023-07-31T13:24:03;129.32;;;120.63;;
56201;SDS011;42117;50.360;3.508;2023-07-31T13:26:29;126.80;;;118.20;;
56201;SDS011;42117;50.360;3.508;2023-07-31T13:28:55;120.97;;;113.17;;
56201;SDS011;42117;50.360;3.508;2023-07-31T13:31:21;114.93;;;107.60;;
56201;SDS011;42117;50.360;3.508;2023-07-31T13:33:48;115.93;;;108.53;;
56201;SDS011;42117;50.360;3.508;2023-07-31T13:36:14;112.55;;;105.15;;
56201;SDS011;42117;50.360;3.508;2023-07-31T13:38:40;115.28;;;107.80;;
56201;SDS011;42117;50.360;3.508;2023-07-31T13:41:06;113.18;;;105.78;;
56201;SDS011;42117;50.360;3.508;2023-07-31T13:43:32;116.90;;;109.38;;
56201;SDS011;42117;50.360;3.508;2023-07-31T13:45:58;118.37;;;110.77;;
56201;SDS011;42117;50.360;3.508;2023-07-31T13:48:31;106.72;;;100.22;;
56201;SDS011;42117;50.360;3.508;2023-07-31T13:50:57;108.35;;;101.65;;
56201;SDS011;42117;50.360;3.508;2023-07-31T13:53:23;107.40;;;100.90;;
56201;SDS011;42117;50.360;3.508;2023-07-31T13:55:49;107.30;;;100.75;;
56201;SDS011;42117;50.360;3.508;2023-07-31T13:58:15;109.40;;;102.53;;
56201;SDS011;42117;50.360;3.508;2023-07-31T14:00:41;111.70;;;104.60;;
56201;SDS011;42117;50.360;3.508;2023-07-31T14:03:07;110.50;;;103.45;;
56201;SDS011;42117;50.360;3.508;2023-07-31T14:05:33;114.25;;;107.05;;
56201;SDS011;42117;50.360;3.508;2023-07-31T14:07:59;110.90;;;103.97;;
56201;SDS011;42117;50.360;3.508;2023-07-31T14:10:25;110.82;;;103.93;;
56201;SDS011;42117;50.360;3.508;2023-07-31T14:12:51;108.22;;;101.28;;
56201;SDS011;42117;50.360;3.508;2023-07-31T14:15:17;105.05;;;98.53;;
56201;SDS011;42117;50.360;3.508;2023-07-31T14:17:43;103.20;;;96.55;;
56201;SDS011;42117;50.360;3.508;2023-07-31T14:20:09;106.47;;;99.70;;
56201;SDS011;42117;50.360;3.508;2023-07-31T14:22:35;98.78;;;92.68;;
56201;SDS011;42117;50.360;3.508;2023-07-31T14:25:02;99.85;;;93.75;;
56201;SDS011;42117;50.360;3.508;2023-07-31T14:27:28;91.82;;;86.22;;
56201;SDS011;42117;50.360;3.508;2023-07-31T14:29:54;93.53;;;88.03;;
56201;SDS011;42117;50.360;3.508;2023-07-31T14:32:21;86.75;;;81.50;;
56201;SDS011;42117;50.360;3.508;2023-07-31T14:34:48;84.72;;;79.53;;
56201;SDS011;42117;50.360;3.508;2023-07-31T14:37:14;89.22;;;84.05;;
56201;SDS011;42117;50.360;3.508;2023-07-31T14:39:40;91.53;;;85.95;;
56201;SDS011;42117;50.360;3.508;2023-07-31T14:42:06;87.40;;;82.10;;
56201;SDS011;42117;50.360;3.508;2023-07-31T14:44:32;93.27;;;87.60;;
56201;SDS011;42117;50.360;3.508;2023-07-31T14:46:58;90.53;;;84.93;;
56201;SDS011;42117;50.360;3.508;2023-07-31T14:49:24;99.85;;;93.55;;
56201;SDS011;42117;50.360;3.508;2023-07-31T14:51:52;100.43;;;94.32;;